Time;durP1;ratioP1;P1;durP2;ratioP2;P2;SDS_P1;SDS_P2;PMS_P1;PMS_P2;Temp;Humidity;BMP_temperature;BMP_pressure;BME280_temperature;BME280_humidity;BME280_pressure;Samples;Min_cycle;Max_cycle;Signal;HPM_P1;HPM_P2
2023/06/29 00:00:21;;;;;;;3.38;2.38;;;;;;;11.78;100.00;98696.34;4188052;28;20098;-71
2023/06/29 00:02:25;;;;;;;3.25;2.53;;;;;;;11.81;100.00;98692.84;4186804;28;20126;-71
2023/06/29 00:04:25;;;;;;;3.45;2.92;;;;;;;11.73;100.00;98689.16;4187319;28;20036;-71
2023/06/29 00:06:26;;;;;;;3.38;2.63;;;;;;;11.69;100.00;98688.34;4185815;28;20366;-71
2023/06/29 00:08:28;;;;;;;3.70;2.40;;;;;;;11.66;100.00;98694.63;4187053;28;20429;-71
2023/06/29 00:10:29;;;;;;;3.83;2.45;;;;;;;11.62;100.00;98685.50;4185996;28;20068;-72
2023/06/29 00:12:29;;;;;;;3.25;2.30;;;;;;;11.58;100.00;98681.88;4173996;28;20091;-71
2023/06/29 00:14:30;;;;;;;5.10;2.60;;;;;;;11.57;100.00;98685.03;4175904;28;20420;-72
2023/06/29 00:16:31;;;;;;;3.70;2.55;;;;;;;11.54;100.00;98690.16;4175181;28;20137;-71
2023/06/29 00:18:32;;;;;;;3.00;2.47;;;;;;;11.51;100.00;98693.72;4186824;28;20119;-72
2023/06/29 00:20:34;;;;;;;2.90;2.17;;;;;;;11.45;100.00;98686.91;4187515;28;20065;-71
2023/06/29 00:22:34;;;;;;;3.30;2.67;;;;;;;11.41;100.00;98693.56;4175434;28;20509;-71
2023/06/29 00:24:42;;;;;;;2.88;2.40;;;;;;;11.38;100.00;98688.78;4175753;28;20129;-71
2023/06/29 00:26:42;;;;;;;4.07;2.63;;;;;;;11.33;100.00;98691.88;4178575;28;20107;-71
2023/06/29 00:28:42;;;;;;;8.07;2.70;;;;;;;11.31;100.00;98683.16;4175284;28;20500;-71
2023/06/29 00:30:43;;;;;;;4.45;3.15;;;;;;;11.29;100.00;98682.75;4176544;28;20072;-71
2023/06/29 00:32:43;;;;;;;3.13;2.50;;;;;;;11.25;100.00;98677.97;4175685;28;20136;-71
2023/06/29 00:34:44;;;;;;;3.33;2.65;;;;;;;11.18;100.00;98685.41;4174844;28;20049;-71
2023/06/29 00:36:45;;;;;;;3.72;2.90;;;;;;;11.13;100.00;98683.75;4175089;28;20470;-71
2023/06/29 00:38:45;;;;;;;4.40;2.88;;;;;;;11.09;100.00;98688.47;4175721;28;20051;-71
2023/06/29 00:40:48;;;;;;;4.75;2.70;;;;;;;11.04;100.00;98683.25;4174852;28;20102;-71
2023/06/29 00:42:48;;;;;;;4.18;2.80;;;;;;;11.04;100.00;98679.69;4175404;28;20540;-71
2023/06/29 00:44:49;;;;;;;5.13;2.80;;;;;;;11.01;100.00;98685.97;4190392;28;20095;-71
2023/06/29 00:46:50;;;;;;;4.18;2.42;;;;;;;10.94;100.00;98687.47;4184885;28;20064;-71
2023/06/29 00:48:51;;;;;;;3.33;2.80;;;;;;;10.92;100.00;98683.47;4189993;28;20397;-71
2023/06/29 00:50:51;;;;;;;3.28;2.50;;;;;;;10.92;100.00;98687.06;4187035;28;20048;-72
2023/06/29 00:52:52;;;;;;;3.75;2.67;;;;;;;10.86;100.00;98674.72;4180163;28;20120;-72
2023/06/29 00:54:56;;;;;;;6.40;3.13;;;;;;;10.87;100.00;98678.28;4175785;28;20041;-71
2023/06/29 00:56:58;;;;;;;3.72;2.70;;;;;;;10.85;100.00;98680.63;4174680;28;20397;-71
2023/06/29 00:58:59;;;;;;;6.22;3.08;;;;;;;10.82;100.00;98678.59;4181667;28;20029;-71
2023/06/29 01:00:59;;;;;;;4.82;2.63;;;;;;;10.80;100.00;98675.41;4179451;28;20508;-72
2023/06/29 01:02:59;;;;;;;3.42;2.50;;;;;;;10.76;100.00;98663.47;4177986;28;20036;-71
2023/06/29 01:04:59;;;;;;;3.97;2.50;;;;;;;10.77;100.00;98676.16;4178150;28;20090;-71
2023/06/29 01:07:15;;;;;;;3.60;2.60;;;;;;;10.76;100.00;98675.38;4183056;28;20466;-71
2023/06/29 01:09:17;;;;;;;4.22;2.40;;;;;;;10.78;100.00;98667.47;4181965;28;20044;-71
2023/06/29 01:11:20;;;;;;;5.72;2.88;;;;;;;10.77;100.00;98676.97;4174583;28;20048;-72
2023/06/29 01:13:22;;;;;;;5.55;2.72;;;;;;;10.81;100.00;98677.78;4174808;28;20053;-71
2023/06/29 01:15:22;;;;;;;3.20;2.38;;;;;;;10.81;100.00;98675.03;4174668;28;20298;-71
2023/06/29 01:17:27;;;;;;;4.78;2.40;;;;;;;10.83;100.00;98661.59;4179424;28;20044;-71
2023/06/29 01:19:31;;;;;;;3.55;2.50;;;;;;;10.88;100.00;98663.25;4189520;28;20331;-71
2023/06/29 01:21:38;;;;;;;3.15;2.30;;;;;;;10.93;100.00;98672.03;4183648;28;20032;-71
2023/06/29 01:23:40;;;;;;;3.53;2.20;;;;;;;10.93;100.00;98660.16;4173005;28;20428;-71
2023/06/29 01:25:41;;;;;;;6.35;2.90;;;;;;;10.91;100.00;98662.50;4174632;28;20048;-71
2023/06/29 01:27:43;;;;;;;5.03;2.58;;;;;;;10.85;100.00;98648.22;4174563;28;20037;-71
2023/06/29 01:29:43;;;;;;;6.07;2.55;;;;;;;10.87;100.00;98654.16;4175025;28;20044;-71
2023/06/29 01:31:45;;;;;;;3.60;2.47;;;;;;;10.87;100.00;98648.63;4178190;28;20044;-72
2023/06/29 01:33:45;;;;;;;6.28;2.55;;;;;;;10.90;100.00;98647.06;4175817;28;20057;-71
2023/06/29 01:35:46;;;;;;;3.45;2.60;;;;;;;10.88;100.00;98649.41;4174295;28;20053;-71
2023/06/29 01:37:59;;;;;;;4.55;2.70;;;;;;;10.77;100.00;98654.03;4174031;28;20063;-71
2023/06/29 01:40:08;;;;;;;3.35;2.50;;;;;;;10.64;100.00;98640.41;4184566;28;20090;-71
2023/06/29 01:42:10;;;;;;;4.32;2.75;;;;;;;10.62;100.00;98644.72;4188641;28;20056;-71
2023/06/29 01:44:15;;;;;;;4.13;3.20;;;;;;;10.61;100.00;98648.66;4179372;28;20025;-71
2023/06/29 01:46:18;;;;;;;3.90;2.75;;;;;;;10.57;100.00;98643.06;4174240;28;20167;-72
2023/06/29 01:48:19;;;;;;;5.97;3.00;;;;;;;10.52;100.00;98645.38;4173931;28;20148;-71
2023/06/29 01:50:21;;;;;;;3.88;2.88;;;;;;;10.48;100.00;98645.31;4174382;28;20073;-71
2023/06/29 01:52:21;;;;;;;4.50;2.55;;;;;;;10.42;100.00;98632.97;4178429;28;20063;-71
2023/06/29 01:54:22;;;;;;;3.30;3.00;;;;;;;10.35;100.00;98641.19;4180592;28;20124;-72
2023/06/29 01:56:22;;;;;;;4.10;2.67;;;;;;;10.23;100.00;98641.38;4174642;28;20041;-71
2023/06/29 01:58:22;;;;;;;3.33;2.50;;;;;;;10.21;100.00;98641.72;4173682;28;20048;-71
2023/06/29 02:00:23;;;;;;;5.82;3.13;;;;;;;10.16;100.00;98644.00;4173893;28;20037;-72
2023/06/29 02:02:23;;;;;;;3.15;2.55;;;;;;;10.07;100.00;98636.75;4176233;28;20032;-72
2023/06/29 02:04:23;;;;;;;4.57;2.95;;;;;;;10.01;100.00;98635.50;4181380;28;20136;-71
2023/06/29 02:06:24;;;;;;;4.07;3.03;;;;;;;9.99;100.00;98635.06;4187603;28;20112;-71
2023/06/29 02:08:24;;;;;;;3.00;2.38;;;;;;;9.96;100.00;98640.53;4176901;28;20068;-71
2023/06/29 02:10:24;;;;;;;5.20;3.15;;;;;;;9.93;100.00;98632.97;4185325;28;20371;-71
2023/06/29 02:12:25;;;;;;;5.47;3.08;;;;;;;9.91;100.00;98625.03;4186559;28;20052;-71
2023/06/29 02:14:28;;;;;;;4.57;2.88;;;;;;;9.93;100.00;98631.03;4189089;28;20043;-71
2023/06/29 02:16:28;;;;;;;;;;;;;;;9.92;100.00;98629.41;4175522;28;20045;-71
2023/06/29 02:18:28;;;;;;;3.57;2.77;;;;;;;9.89;100.00;98632.13;4174025;28;20396;-71
2023/06/29 02:20:28;;;;;;;3.72;2.88;;;;;;;9.91;100.00;98636.09;4172899;28;20350;-71
2023/06/29 02:22:29;;;;;;;5.90;3.03;;;;;;;9.89;100.00;98627.38;4185863;28;20125;-71
2023/06/29 02:24:29;;;;;;;5.78;3.00;;;;;;;9.84;100.00;98631.25;4175034;28;20059;-71
2023/06/29 02:26:30;;;;;;;8.27;3.17;;;;;;;9.80;100.00;98621.31;4187732;28;20068;-71
2023/06/29 02:28:30;;;;;;;6.97;3.22;;;;;;;9.78;100.00;98627.22;4179463;28;20060;-72
2023/06/29 02:30:30;;;;;;;3.85;2.50;;;;;;;9.81;100.00;98625.66;4178708;28;20052;-72
2023/06/29 02:32:30;;;;;;;4.50;2.78;;;;;;;9.87;100.00;98621.44;4175529;28;20055;-72
2023/06/29 02:34:31;;;;;;;7.45;3.40;;;;;;;9.91;100.00;98625.03;4172884;28;20047;-73
2023/06/29 02:36:31;;;;;;;4.03;2.70;;;;;;;9.89;100.00;98624.63;4173399;28;20528;-72
2023/06/29 02:38:32;;;;;;;4.53;2.85;;;;;;;9.84;100.00;98627.69;4174359;28;20127;-72
2023/06/29 02:40:32;;;;;;;6.05;3.40;;;;;;;9.79;100.00;98617.75;4179404;28;20126;-72
2023/06/29 02:42:32;;;;;;;7.63;3.33;;;;;;;9.74;100.00;98625.53;4175620;28;20108;-73
2023/06/29 02:44:33;;;;;;;6.78;2.80;;;;;;;9.71;100.00;98618.00;4173195;28;20048;-73
2023/06/29 02:46:33;;;;;;;6.68;2.60;;;;;;;9.71;100.00;98620.78;4181035;28;20532;-73
2023/06/29 02:48:33;;;;;;;4.10;2.75;;;;;;;9.75;100.00;98610.56;4173431;28;20045;-73
2023/06/29 02:50:33;;;;;;;5.35;3.08;;;;;;;9.80;100.00;98616.59;4185467;28;20099;-73
2023/06/29 02:52:34;;;;;;;7.57;2.80;;;;;;;9.88;100.00;98611.19;4183386;28;20048;-73
2023/06/29 02:54:34;;;;;;;5.50;2.75;;;;;;;9.89;100.00;98613.56;4187816;28;20093;-72
2023/06/29 02:56:34;;;;;;;4.22;2.60;;;;;;;9.93;100.00;98611.69;4178760;28;20198;-72
2023/06/29 02:58:35;;;;;;;5.15;2.85;;;;;;;9.90;100.00;98606.88;4187950;28;20121;-72
2023/06/29 03:00:35;;;;;;;4.18;3.00;;;;;;;9.82;100.00;98607.91;4174480;28;20063;-73
2023/06/29 03:02:35;;;;;;;5.03;3.00;;;;;;;9.74;100.00;98620.03;4172734;28;20049;-72
2023/06/29 03:04:36;;;;;;;6.25;3.08;;;;;;;9.66;100.00;98619.09;4173331;28;20044;-72
2023/06/29 03:06:36;;;;;;;7.70;3.40;;;;;;;9.60;100.00;98617.84;4172519;28;20086;-72
2023/06/29 03:08:36;;;;;;;3.97;2.97;;;;;;;9.58;100.00;98623.69;4187954;28;20102;-72
2023/06/29 03:10:37;;;;;;;4.90;3.17;;;;;;;9.54;100.00;98613.78;4177244;28;20048;-72
2023/06/29 03:12:37;;;;;;;5.85;3.28;;;;;;;9.52;100.00;98611.38;4187032;28;20451;-72
2023/06/29 03:14:37;;;;;;;6.63;3.30;;;;;;;9.48;100.00;98612.47;4186416;28;20055;-72
2023/06/29 03:16:38;;;;;;;3.50;3.10;;;;;;;9.47;100.00;98608.13;4188596;28;20057;-72
2023/06/29 03:18:39;;;;;;;5.22;3.00;;;;;;;9.46;100.00;98612.06;4185924;28;20045;-72
2023/06/29 03:20:39;;;;;;;4.78;2.60;;;;;;;9.43;100.00;98601.72;4175968;28;20047;-72
2023/06/29 03:22:40;;;;;;;4.03;3.15;;;;;;;9.44;100.00;98598.63;4176363;28;20662;-72
2023/06/29 03:24:41;;;;;;;3.88;2.88;;;;;;;9.47;100.00;98605.34;4172786;28;20068;-72
2023/06/29 03:26:41;;;;;;;4.38;2.65;;;;;;;9.44;100.00;98603.34;4174434;28;20526;-72
2023/06/29 03:28:42;;;;;;;4.30;3.22;;;;;;;9.48;100.00;98602.22;4176177;28;20041;-72
2023/06/29 03:30:42;;;;;;;5.70;3.70;;;;;;;9.52;100.00;98602.31;4178714;28;20115;-72
2023/06/29 03:32:42;;;;;;;7.57;3.53;;;;;;;9.58;100.00;98609.88;4174391;28;20098;-72
2023/06/29 03:34:43;;;;;;;4.25;3.03;;;;;;;9.61;100.00;98607.56;4178842;28;20060;-72
2023/06/29 03:36:43;;;;;;;3.70;2.60;;;;;;;9.61;100.00;98604.81;4183132;28;20056;-72
2023/06/29 03:38:43;;;;;;;5.93;3.10;;;;;;;9.61;100.00;98602.84;4175532;28;20041;-73
2023/06/29 03:40:44;;;;;;;4.75;3.08;;;;;;;9.61;100.00;98602.84;4172933;28;20044;-72
2023/06/29 03:42:44;;;;;;;3.53;2.72;;;;;;;9.64;100.00;98602.09;4175268;28;20400;-72
2023/06/29 03:44:44;;;;;;;5.68;3.03;;;;;;;9.66;100.00;98597.00;4172045;28;20037;-72
2023/06/29 03:46:44;;;;;;;5.45;3.10;;;;;;;9.73;100.00;98590.81;4171051;28;20037;-73
2023/06/29 03:48:45;;;;;;;4.95;2.78;;;;;;;9.73;100.00;98601.84;4178518;28;20044;-72
2023/06/29 03:50:45;;;;;;;3.92;2.97;;;;;;;9.73;100.00;98599.88;4175930;28;20037;-72
2023/06/29 03:52:45;;;;;;;4.43;3.05;;;;;;;9.73;100.00;98588.84;4175547;28;20544;-72
2023/06/29 03:54:46;;;;;;;5.68;3.10;;;;;;;9.77;100.00;98598.00;4180166;28;20049;-72
2023/06/29 03:56:46;;;;;;;4.90;3.13;;;;;;;9.80;100.00;98585.41;4179274;28;20040;-72
2023/06/29 03:58:46;;;;;;;5.95;2.90;;;;;;;9.84;100.00;98586.22;4188305;28;20568;-73
2023/06/29 04:00:47;;;;;;;4.10;2.72;;;;;;;9.90;100.00;98590.28;4176157;28;20044;-72
2023/06/29 04:02:47;;;;;;;4.95;2.90;;;;;;;9.95;100.00;98587.22;4175707;28;20454;-72
2023/06/29 04:04:47;;;;;;;6.45;3.30;;;;;;;10.00;100.00;98581.34;4175951;28;20053;-72
2023/06/29 04:06:47;;;;;;;4.53;2.95;;;;;;;10.05;100.00;98585.78;4175974;28;20049;-72
2023/06/29 04:08:48;;;;;;;5.53;2.90;;;;;;;10.10;100.00;98588.25;4176407;28;20381;-72
2023/06/29 04:10:48;;;;;;;5.07;3.13;;;;;;;10.16;100.00;98580.41;4185269;28;20049;-72
2023/06/29 04:12:48;;;;;;;7.88;3.05;;;;;;;10.24;100.00;98585.69;4173251;28;20049;-72
2023/06/29 04:14:49;;;;;;;5.70;3.42;;;;;;;10.36;100.00;98581.94;4173368;28;20089;-73
2023/06/29 04:16:49;;;;;;;5.75;3.00;;;;;;;10.49;100.00;98580.50;4174767;28;20497;-72
2023/06/29 04:18:49;;;;;;;5.00;3.17;;;;;;;10.59;100.00;98579.88;4177155;28;20051;-72
2023/06/29 04:20:50;;;;;;;12.50;3.30;;;;;;;10.73;100.00;98590.31;4181685;28;20046;-72
2023/06/29 04:22:50;;;;;;;5.40;3.13;;;;;;;10.85;100.00;98584.53;4176323;28;20481;-73
2023/06/29 04:24:50;;;;;;;8.90;3.28;;;;;;;10.95;100.00;98594.94;4171095;28;20397;-72
2023/06/29 04:26:51;;;;;;;3.97;3.13;;;;;;;11.02;100.00;98585.13;4178741;28;20156;-72
2023/06/29 04:28:51;;;;;;;6.38;3.35;;;;;;;11.08;100.00;98584.38;4175337;28;20040;-72
2023/06/29 04:30:51;;;;;;;5.68;3.72;;;;;;;11.16;100.00;98597.13;4175127;28;20505;-72
2023/06/29 04:32:51;;;;;;;4.63;3.35;;;;;;;11.24;100.00;98595.25;4169548;28;20464;-72
2023/06/29 04:34:52;;;;;;;4.63;3.22;;;;;;;11.29;100.00;98594.91;4168653;28;20049;-72
2023/06/29 04:36:56;;;;;;;4.45;3.38;;;;;;;11.38;100.00;98597.38;4166453;28;20049;-72
2023/06/29 04:38:56;;;;;;;5.15;3.60;;;;;;;11.48;100.00;98596.69;4179039;28;20047;-72
2023/06/29 04:41:06;;;;;;;6.70;3.65;;;;;;;11.59;100.00;98597.59;4177838;28;20450;-72
2023/06/29 04:43:06;;;;;;;4.40;3.25;;;;;;;11.74;100.00;98584.63;4175790;28;20033;-72
2023/06/29 04:45:07;;;;;;;5.32;3.75;;;;;;;11.86;100.00;98584.38;4176476;28;20063;-72
2023/06/29 04:47:07;;;;;;;4.90;3.33;;;;;;;11.89;100.00;98583.59;4179964;28;20436;-72
2023/06/29 04:49:09;;;;;;;4.40;3.40;;;;;;;11.98;100.00;98588.81;4179618;28;20037;-72
2023/06/29 04:51:13;;;;;;;4.60;3.10;;;;;;;12.17;100.00;98588.59;4190463;28;20102;-72
2023/06/29 04:53:13;;;;;;;4.57;3.00;;;;;;;12.34;100.00;98581.56;4186386;28;20045;-72
2023/06/29 04:55:14;;;;;;;5.93;3.38;;;;;;;12.54;100.00;98582.06;4179186;28;20037;-72
2023/06/29 04:57:14;;;;;;;4.68;3.67;;;;;;;12.68;100.00;98576.59;4179717;28;20098;-72
2023/06/29 04:59:14;;;;;;;6.97;3.50;;;;;;;12.80;100.00;98575.44;4178559;28;20516;-72
2023/06/29 05:01:15;;;;;;;6.40;4.10;;;;;;;12.77;100.00;98579.00;4180761;28;20079;-73
2023/06/29 05:03:15;;;;;;;6.18;3.70;;;;;;;12.70;100.00;98587.28;4178121;28;20079;-72
2023/06/29 05:05:16;;;;;;;5.20;3.95;;;;;;;12.68;100.00;98581.34;4183671;28;20064;-72
2023/06/29 05:07:17;;;;;;;7.00;3.90;;;;;;;12.63;100.00;98576.94;4149033;28;20384;-72
2023/06/29 05:09:17;;;;;;;7.63;3.92;;;;;;;12.61;100.00;98582.91;4180513;28;20056;-72
2023/06/29 05:11:17;;;;;;;4.25;3.60;;;;;;;12.61;100.00;98576.56;4174630;28;20530;-72
2023/06/29 05:13:18;;;;;;;5.30;4.10;;;;;;;12.62;100.00;98576.16;4173799;28;20544;-72
2023/06/29 05:15:18;;;;;;;4.97;3.53;;;;;;;12.63;100.00;98571.41;4178979;28;20083;-72
2023/06/29 05:17:18;;;;;;;4.78;3.75;;;;;;;12.67;100.00;98576.97;4188009;28;20489;-72
2023/06/29 05:19:18;;;;;;;5.05;3.67;;;;;;;12.68;100.00;98579.38;4184059;28;20037;-72
2023/06/29 05:21:19;;;;;;;7.55;3.60;;;;;;;12.73;100.00;98578.19;4174002;28;20045;-72
2023/06/29 05:23:19;;;;;;;9.30;3.88;;;;;;;12.79;100.00;98577.41;4173983;28;20037;-72
2023/06/29 05:25:20;;;;;;;5.93;3.65;;;;;;;12.79;100.00;98571.88;4176749;28;20069;-73
2023/06/29 05:27:20;;;;;;;5.78;4.28;;;;;;;12.82;100.00;98562.75;4187829;28;20048;-73
2023/06/29 05:29:20;;;;;;;11.07;4.60;;;;;;;12.84;100.00;98560.41;4179841;28;20033;-72
2023/06/29 05:31:20;;;;;;;4.95;3.45;;;;;;;12.88;100.00;98552.84;4183994;28;20047;-72
2023/06/29 05:33:21;;;;;;;8.00;4.55;;;;;;;12.90;100.00;98560.78;4180607;28;20051;-72
2023/06/29 05:35:21;;;;;;;5.43;4.47;;;;;;;12.99;100.00;98554.88;4172279;28;20049;-72
2023/06/29 05:37:22;;;;;;;8.75;4.45;;;;;;;13.09;100.00;98559.69;4173873;28;20045;-72
2023/06/29 05:39:22;;;;;;;8.98;4.13;;;;;;;13.15;100.00;98556.09;4174300;28;20094;-72
2023/06/29 05:41:22;;;;;;;7.18;4.30;;;;;;;13.24;100.00;98557.75;4187503;28;20468;-72
2023/06/29 05:43:23;;;;;;;7.00;4.00;;;;;;;13.33;100.00;98556.19;4179485;28;20526;-72
2023/06/29 05:45:23;;;;;;;7.32;4.15;;;;;;;13.45;100.00;98558.59;4174254;28;20048;-72
2023/06/29 05:47:24;;;;;;;5.63;4.13;;;;;;;13.56;100.00;98561.38;4174204;28;20466;-72
2023/06/29 05:49:24;;;;;;;6.85;3.63;;;;;;;13.64;100.00;98556.59;4174145;28;20033;-72
2023/06/29 05:51:24;;;;;;;7.72;3.78;;;;;;;13.73;100.00;98557.00;4174232;28;20048;-72
2023/06/29 05:53:25;;;;;;;8.90;4.65;;;;;;;13.84;100.00;98554.25;4182568;28;20332;-72
2023/06/29 05:55:25;;;;;;;10.48;4.07;;;;;;;13.91;100.00;98555.03;4178599;28;20053;-72
2023/06/29 05:57:25;;;;;;;6.82;4.30;;;;;;;14.01;100.00;98557.00;4174127;28;20051;-72
2023/06/29 05:59:26;;;;;;;6.40;4.93;;;;;;;14.08;100.00;98549.84;4185066;28;20072;-72
2023/06/29 06:01:26;;;;;;;9.52;4.43;;;;;;;14.13;100.00;98555.00;4182174;28;20383;-72
2023/06/29 06:03:27;;;;;;;7.43;4.53;;;;;;;14.16;100.00;98552.22;4173408;28;20071;-72
2023/06/29 06:05:27;;;;;;;10.35;4.55;;;;;;;14.25;100.00;98549.81;4173626;28;20498;-72
2023/06/29 06:07:29;;;;;;;5.53;4.10;;;;;;;14.34;100.00;98552.19;4182786;28;20106;-72
2023/06/29 06:09:29;;;;;;;8.80;4.22;;;;;;;14.41;100.00;98546.59;4188053;28;20099;-72
2023/06/29 06:11:29;;;;;;;7.22;4.40;;;;;;;14.48;100.00;98549.41;4185993;28;20328;-73
2023/06/29 06:13:30;;;;;;;7.97;4.03;;;;;;;14.56;100.00;98548.19;4173459;28;20570;-72
2023/06/29 06:15:30;;;;;;;6.22;4.10;;;;;;;14.67;100.00;98541.78;4173870;28;20356;-72
2023/06/29 06:17:30;;;;;;;5.72;4.00;;;;;;;14.75;100.00;98549.69;4173677;28;20040;-72
2023/06/29 06:19:31;;;;;;;5.25;3.70;;;;;;;14.82;100.00;98551.66;4174177;28;20063;-72
2023/06/29 06:21:31;;;;;;;5.85;4.30;;;;;;;14.93;100.00;98546.03;4172688;28;20045;-72
2023/06/29 06:23:31;;;;;;;4.97;3.83;;;;;;;15.03;100.00;98548.75;4172495;28;20397;-72
2023/06/29 06:25:31;;;;;;;4.97;3.55;;;;;;;15.11;100.00;98555.88;4173618;28;20135;-72
2023/06/29 06:27:32;;;;;;;6.20;3.75;;;;;;;15.20;100.00;98554.63;4173983;28;20440;-72
2023/06/29 06:29:33;;;;;;;8.27;3.60;;;;;;;15.22;100.00;98541.88;4183971;28;20109;-72
2023/06/29 06:31:33;;;;;;;5.45;3.30;;;;;;;15.30;100.00;98546.19;4186325;28;20499;-72
2023/06/29 06:33:33;;;;;;;5.20;3.40;;;;;;;15.43;100.00;98543.75;4173229;28;20040;-72
2023/06/29 06:35:34;;;;;;;5.15;3.30;;;;;;;15.52;100.00;98546.88;4173396;28;20057;-72
2023/06/29 06:37:38;;;;;;;5.13;3.33;;;;;;;15.66;100.00;98552.38;4180086;28;20059;-72
2023/06/29 06:39:38;;;;;;;5.68;3.40;;;;;;;15.80;100.00;98542.28;4187313;28;20090;-72
2023/06/29 06:41:39;;;;;;;3.38;2.95;;;;;;;15.85;100.00;98539.84;4185386;28;20049;-72
2023/06/29 06:43:39;;;;;;;13.85;3.80;;;;;;;15.90;100.00;98545.00;4172755;28;20369;-72
2023/06/29 06:45:39;;;;;;;4.53;3.33;;;;;;;15.96;100.00;98548.13;4176061;28;20040;-72
2023/06/29 06:47:40;;;;;;;6.70;3.25;;;;;;;16.04;100.00;98540.47;4177015;28;20107;-73
2023/06/29 06:49:40;;;;;;;7.00;3.22;;;;;;;16.08;100.00;98542.03;4181429;28;20059;-72
2023/06/29 06:51:40;;;;;;;3.50;3.10;;;;;;;16.19;100.00;98547.50;4177411;28;20037;-72
2023/06/29 06:53:41;;;;;;;6.65;3.60;;;;;;;16.26;100.00;98541.88;4172752;28;20485;-72
2023/06/29 06:55:41;;;;;;;5.28;3.10;;;;;;;16.29;100.00;98536.22;4173139;28;20090;-72
2023/06/29 06:57:41;;;;;;;6.15;3.40;;;;;;;16.39;100.00;98539.34;4176114;28;20099;-73
2023/06/29 06:59:42;;;;;;;6.68;3.40;;;;;;;16.48;100.00;98540.44;4173133;28;20551;-72
2023/06/29 07:01:42;;;;;;;4.15;2.70;;;;;;;16.55;100.00;98528.41;4173206;28;20031;-72
2023/06/29 07:03:43;;;;;;;5.50;3.00;;;;;;;16.65;100.00;98535.06;4172627;28;20465;-73
2023/06/29 07:05:43;;;;;;;7.43;2.85;;;;;;;16.75;100.00;98532.16;4172620;28;20029;-72
2023/06/29 07:07:45;;;;;;;2.97;2.33;;;;;;;16.87;100.00;98532.81;4173261;28;20048;-72
2023/06/29 07:09:46;;;;;;;;;;;;;;;16.97;100.00;98534.69;4175817;28;20051;-72
2023/06/29 07:11:46;;;;;;;3.25;2.50;;;;;;;17.02;100.00;98531.41;4187447;28;20372;-73
2023/06/29 07:13:46;;;;;;;4.63;2.60;;;;;;;17.09;100.00;98534.91;4187193;28;20048;-73
2023/06/29 07:15:47;;;;;;;4.05;2.50;;;;;;;17.12;100.00;98536.06;4189120;28;20064;-73
2023/06/29 07:17:47;;;;;;;2.92;2.63;;;;;;;17.17;100.00;98534.81;4180032;28;20128;-73
2023/06/29 07:19:47;;;;;;;3.25;2.50;;;;;;;17.21;100.00;98536.34;4176380;28;20524;-73
2023/06/29 07:21:48;;;;;;;4.53;2.40;;;;;;;17.30;100.00;98536.63;4185217;28;20380;-73
2023/06/29 07:23:48;;;;;;;4.18;2.65;;;;;;;17.37;100.00;98530.91;4172289;28;20068;-73
2023/06/29 07:25:50;;;;;;;4.07;2.90;;;;;;;17.64;100.00;98521.72;4184067;28;20384;-73
2023/06/29 07:27:50;;;;;;;3.90;2.63;;;;;;;17.81;100.00;98517.88;4188200;28;20045;-73
2023/06/29 07:29:50;;;;;;;4.00;2.60;;;;;;;17.90;100.00;98520.91;4182825;28;20059;-73
2023/06/29 07:31:51;;;;;;;3.60;3.08;;;;;;;17.99;100.00;98513.97;4173005;28;20473;-73
2023/06/29 07:33:53;;;;;;;2.90;2.53;;;;;;;18.06;100.00;98511.84;4172358;28;20060;-73
2023/06/29 07:35:53;;;;;;;5.88;2.50;;;;;;;18.17;100.00;98511.63;4180522;28;20062;-73
2023/06/29 07:37:53;;;;;;;5.28;2.28;;;;;;;18.35;100.00;98517.69;4187735;28;20752;-73
2023/06/29 07:39:54;;;;;;;3.83;2.65;;;;;;;18.48;100.00;98520.66;4182402;28;20140;-73
2023/06/29 07:41:54;;;;;;;4.35;2.40;;;;;;;18.56;99.68;98515.69;4173196;28;20381;-73
2023/06/29 07:43:56;;;;;;;2.55;2.28;;;;;;;18.66;99.19;98503.50;4171927;28;20033;-73
2023/06/29 07:45:56;;;;;;;4.60;2.72;;;;;;;18.73;97.63;98509.75;4173947;28;20043;-73
2023/06/29 07:47:57;;;;;;;4.78;2.50;;;;;;;18.79;99.26;98501.66;4179585;28;20146;-73
2023/06/29 07:49:57;;;;;;;2.65;2.20;;;;;;;18.88;97.94;98493.44;4181456;28;20036;-73
2023/06/29 07:51:58;;;;;;;2.58;2.17;;;;;;;18.99;97.55;98498.81;4187468;28;20063;-73
2023/06/29 07:54:00;;;;;;;5.07;2.35;;;;;;;19.06;96.25;98493.03;4187134;28;20032;-73
2023/06/29 07:56:01;;;;;;;5.22;2.30;;;;;;;19.12;96.23;98488.50;4173532;28;20080;-72
2023/06/29 07:58:01;;;;;;;4.30;2.25;;;;;;;19.21;94.66;98497.09;4172390;28;20068;-73
2023/06/29 08:00:03;;;;;;;3.60;2.40;;;;;;;19.32;92.09;98488.44;4172288;28;20429;-73
2023/06/29 08:02:04;;;;;;;3.70;2.33;;;;;;;19.41;91.79;98499.84;4172498;28;20373;-72
2023/06/29 08:04:08;;;;;;;5.38;2.35;;;;;;;19.46;91.07;98493.72;4172036;28;20064;-73
2023/06/29 08:06:08;;;;;;;3.63;2.25;;;;;;;19.60;90.13;98490.56;4172513;28;20389;-72
2023/06/29 08:08:09;;;;;;;3.03;2.20;;;;;;;19.69;89.05;98483.56;4172618;28;20104;-72
2023/06/29 08:10:09;;;;;;;3.22;2.17;;;;;;;19.74;89.23;98489.44;4172728;28;20039;-72
2023/06/29 08:12:10;;;;;;;6.22;2.28;;;;;;;19.83;87.43;98492.41;4172860;28;20083;-72
2023/06/29 08:14:10;;;;;;;4.38;2.17;;;;;;;19.81;86.47;98480.84;4173639;28;20405;-72
2023/06/29 08:16:10;;;;;;;3.10;2.20;;;;;;;19.92;87.62;98491.78;4188239;28;20039;-72
2023/06/29 08:18:11;;;;;;;3.30;2.00;;;;;;;19.99;86.44;98488.81;4186809;28;20374;-72
2023/06/29 08:20:12;;;;;;;4.25;2.30;;;;;;;20.09;85.50;98489.75;4187125;28;20445;-72
2023/06/29 08:22:12;;;;;;;7.35;2.55;;;;;;;20.11;84.68;98481.69;4179311;28;20029;-73
2023/06/29 08:24:12;;;;;;;3.75;2.60;;;;;;;20.22;87.77;98484.19;4178839;28;20033;-72
2023/06/29 08:26:13;;;;;;;3.40;2.50;;;;;;;20.31;86.99;98478.72;4186834;28;20427;-72
2023/06/29 08:28:13;;;;;;;8.15;2.60;;;;;;;20.38;83.45;98482.13;4180298;28;20035;-73
2023/06/29 08:30:13;;;;;;;4.32;2.00;;;;;;;20.46;81.84;98479.94;4172346;28;20833;-73
2023/06/29 08:32:14;;;;;;;4.38;2.20;;;;;;;20.50;81.40;98471.41;4172928;28;20657;-72
2023/06/29 08:34:14;;;;;;;3.08;2.10;;;;;;;20.63;79.14;98472.22;4174693;28;20333;-72
2023/06/29 08:36:15;;;;;;;4.13;2.45;;;;;;;20.71;78.81;98463.13;4175556;28;20128;-73
2023/06/29 08:38:15;;;;;;;3.92;2.20;;;;;;;20.76;78.29;98464.59;4175718;28;20025;-73
2023/06/29 08:40:21;;;;;;;4.55;2.42;;;;;;;20.83;79.11;98458.75;4175184;28;20100;-72
2023/06/29 08:42:23;;;;;;;4.45;2.03;;;;;;;20.97;73.84;98461.16;4175132;28;20052;-72
2023/06/29 08:44:23;;;;;;;2.80;1.90;;;;;;;21.09;71.93;98453.16;4174902;28;20041;-72
2023/06/29 08:46:24;;;;;;;3.05;2.05;;;;;;;21.22;75.36;98459.59;4175597;28;20480;-73
2023/06/29 08:48:27;;;;;;;3.28;2.30;;;;;;;21.28;75.64;98449.38;4187232;28;20052;-72
2023/06/29 08:50:28;;;;;;;;;;;;;;;21.38;74.72;98458.72;4190712;28;20127;-72
2023/06/29 08:52:33;;;;;;;7.65;2.10;;;;;;;21.55;72.71;98454.53;4187209;28;19916;-73
2023/06/29 08:54:35;;;;;;;5.80;2.25;;;;;;;21.65;69.85;98450.56;4175026;28;20044;-73
2023/06/29 08:56:35;;;;;;;4.05;2.22;;;;;;;21.69;70.29;98448.44;4175539;28;20126;-72
2023/06/29 08:58:37;;;;;;;10.27;2.28;;;;;;;21.74;71.16;98447.84;4175257;28;20364;-73
2023/06/29 09:00:38;;;;;;;2.40;2.00;;;;;;;21.82;70.72;98449.16;4180762;28;20169;-73
2023/06/29 09:02:39;;;;;;;3.50;2.30;;;;;;;21.88;73.27;98444.53;4186002;28;20064;-73
2023/06/29 09:04:40;;;;;;;3.08;2.10;;;;;;;21.91;70.28;98436.41;4175419;28;20366;-73
2023/06/29 09:06:42;;;;;;;2.60;2.10;;;;;;;21.99;70.97;98443.38;4174584;28;20389;-73
2023/06/29 09:08:43;;;;;;;2.70;1.95;;;;;;;22.07;71.39;98433.44;4174828;28;20037;-73
2023/06/29 09:10:46;;;;;;;3.17;2.10;;;;;;;22.01;72.53;98436.06;4175207;28;20227;-73
2023/06/29 09:12:47;;;;;;;3.60;2.17;;;;;;;22.08;72.05;98435.03;4174462;28;20412;-73
2023/06/29 09:14:47;;;;;;;4.97;2.30;;;;;;;22.21;71.33;98435.78;4174740;28;20045;-73
2023/06/29 09:16:52;;;;;;;6.80;2.28;;;;;;;22.39;69.66;98433.09;4174697;28;20453;-73
2023/06/29 09:18:54;;;;;;;5.03;2.20;;;;;;;22.69;70.14;98439.25;4174636;28;20036;-73
2023/06/29 09:20:55;;;;;;;2.47;1.93;;;;;;;22.79;67.11;98440.88;4175207;28;20045;-73
2023/06/29 09:22:55;;;;;;;6.95;2.65;;;;;;;22.83;66.21;98432.25;4177212;28;20512;-73
2023/06/29 09:24:57;;;;;;;2.55;1.92;;;;;;;22.83;66.76;98426.63;4174003;28;20055;-73